Original METAR for KOLM:
211454Z 00000KT 10SM FEW028 SCT060 11/10 A2997 RMK AO2 SLP149 T01060100 53004

Wind: KT ° at 10 knots
Visibility: 10 statute miles
Sky conditions: Few clouds at 2,800 feet
Temperature: 51.8°F
Dew Point: 50°F
Altimeter: 29.97

Remarks:
-- METAR generated by an automated station with a precipitation discriminator.
-- Sea level pressure: 1,014.9 millibars.
-- Precise hourly temperature and dew point: 10.6°C / 10.0°C

NOTE:
This METAR was retrieved from the National Weather Service at:
https://www.aviationweather.gov/metar/data?ids=KOLM&format=raw&date=0&hours=0


Cessnas2Oshkosh, C2O, CessnaBaseCamp and The Pirep | Testimonials | Donations | FAQ | Privacy | Contact Us
are trademarks of Cessnas 2 Oshkosh - Dothan, AL Copyright © 2008 - 2020 Cessnas 2 Oshkosh. All rights reserved.